Time;durP1;ratioP1;P1;durP2;ratioP2;P2;SDS_P1;SDS_P2;PMS_P1;PMS_P2;Temp;Humidity;BMP_temperature;BMP_pressure;BME280_temperature;BME280_humidity;BME280_pressure;Samples;Min_cycle;Max_cycle;Signal;HPM_P1;HPM_P2
2023/10/12 00:18:38;;;;;;;11.70;6.20;;;19.30;99.90;;;;;;4577257;19;20017;-75
2023/10/12 00:20:31;;;;;;;8.85;4.18;;;19.30;99.90;;;;;;4593344;19;20075;-75
2023/10/12 00:22:11;;;;;;;10.30;5.22;;;19.30;99.90;;;;;;4593303;19;20007;-75
2023/10/12 00:23:47;;;;;;;8.25;4.93;;;19.30;99.90;;;;;;4594503;19;20014;-75
2023/10/12 00:25:23;;;;;;;10.65;5.80;;;19.30;99.90;;;;;;4594482;19;20014;-74
2023/10/12 00:26:58;;;;;;;9.15;4.68;;;19.20;99.90;;;;;;4594392;19;20006;-75
2023/10/12 00:28:44;;;;;;;9.38;5.85;;;19.30;99.90;;;;;;4593408;19;20409;-75
2023/10/12 00:30:23;;;;;;;12.05;5.78;;;19.30;99.90;;;;;;4593100;19;20480;-74
2023/10/12 00:31:58;;;;;;;11.07;5.00;;;19.20;99.90;;;;;;4593999;19;19994;-74
2023/10/12 00:33:32;;;;;;;8.82;5.18;;;19.30;99.90;;;;;;4594127;19;20006;-75
2023/10/12 00:35:17;;;;;;;6.97;4.60;;;19.20;99.90;;;;;;4594297;19;20540;-74
2023/10/12 00:36:57;;;;;;;10.45;4.63;;;19.20;99.90;;;;;;4594424;19;20006;-74
2023/10/12 00:38:32;;;;;;;8.60;4.95;;;19.20;99.90;;;;;;4593581;19;20014;-74
2023/10/12 00:40:31;;;;;;;11.35;5.15;;;19.20;99.90;;;;;;4591683;19;20433;-74
2023/10/12 00:42:06;;;;;;;8.55;4.43;;;19.20;99.90;;;;;;4592680;19;20007;-74
2023/10/12 00:43:52;;;;;;;9.77;4.63;;;19.20;99.90;;;;;;4593970;19;20003;-74
2023/10/12 00:45:32;;;;;;;9.27;4.57;;;19.20;99.90;;;;;;4594317;19;20314;-74
2023/10/12 00:49:17;;;;;;;10.68;5.63;;;19.20;99.90;;;;;;4592764;19;20010;-74
2023/10/12 00:50:56;;;;;;;9.15;4.80;;;19.20;99.90;;;;;;4592849;19;20006;-74
2023/10/12 00:52:46;;;;;;;9.07;4.80;;;19.20;99.90;;;;;;4592497;19;20477;-74
2023/10/12 00:54:27;;;;;;;10.80;5.60;;;19.20;99.90;;;;;;4592528;19;20006;-74
2023/10/12 00:56:03;;;;;;;8.65;5.28;;;19.20;99.90;;;;;;4592589;19;20006;-74
2023/10/12 00:57:37;;;;;;;8.07;5.25;;;19.20;99.90;;;;;;4592539;19;20306;-75
2023/10/12 00:59:14;;;;;;;8.20;5.10;;;19.20;99.90;;;;;;4593039;19;20005;-74
2023/10/12 01:00:53;;;;;;;12.50;5.80;;;19.20;99.90;;;;;;4593792;19;20062;-74
2023/10/12 01:02:32;;;;;;;9.68;4.85;;;19.20;99.90;;;;;;4593739;19;20062;-74
2023/10/12 01:04:15;;;;;;;8.65;4.65;;;19.20;99.90;;;;;;4593948;19;20033;-74
2023/10/12 01:06:07;;;;;;;7.60;4.30;;;19.20;99.90;;;;;;4593627;19;20006;-74
2023/10/12 01:07:42;;;;;;;11.40;5.50;;;19.10;99.90;;;;;;4592021;19;20043;-74
2023/10/12 01:09:20;;;;;;;11.35;5.03;;;19.10;99.90;;;;;;4592499;19;19999;-74
2023/10/12 01:10:59;;;;;;;10.98;5.15;;;19.10;99.90;;;;;;4593520;19;20357;-74
2023/10/12 01:12:34;;;;;;;9.77;5.10;;;19.10;99.90;;;;;;4593548;19;20498;-74
2023/10/12 01:14:09;;;;;;;10.93;4.90;;;19.10;99.90;;;;;;4593677;19;20086;-74
2023/10/12 01:15:47;;;;;;;8.95;4.57;;;19.10;99.90;;;;;;4593459;19;20013;-74
2023/10/12 01:17:25;;;;;;;10.05;5.00;;;19.10;99.90;;;;;;4593421;19;20010;-74
2023/10/12 01:19:07;;;;;;;8.82;4.70;;;19.20;99.90;;;;;;4590578;19;20015;-74
2023/10/12 01:20:42;;;;;;;7.55;4.90;;;19.20;99.90;;;;;;4593087;19;20030;-74
2023/10/12 01:22:25;;;;;;;9.75;5.13;;;19.10;99.90;;;;;;4593245;19;20465;-74
2023/10/12 01:24:01;;;;;;;9.93;5.30;;;19.10;99.90;;;;;;4592181;19;20002;-74
2023/10/12 01:25:42;;;;;;;9.10;4.63;;;19.20;99.90;;;;;;4591942;19;20382;-74
2023/10/12 01:27:18;;;;;;;7.03;4.63;;;19.10;99.90;;;;;;4592528;19;20010;-74
2023/10/12 01:28:55;;;;;;;10.68;5.40;;;19.10;99.90;;;;;;4591022;19;20031;-74
2023/10/12 01:30:35;;;;;;;8.20;4.63;;;19.10;99.90;;;;;;4593135;19;20313;-74
2023/10/12 01:33:43;;;;;;;8.27;4.78;;;19.20;99.90;;;;;;4593258;19;20002;-74
2023/10/12 01:35:26;;;;;;;9.27;4.80;;;19.10;99.90;;;;;;4593065;19;20070;-74
2023/10/12 01:37:00;;;;;;;9.45;4.45;;;19.10;99.90;;;;;;4593062;19;20369;-74
2023/10/12 01:38:37;;;;;;;9.35;4.95;;;19.10;99.90;;;;;;4592124;19;20010;-74
2023/10/12 01:40:17;;;;;;;8.27;4.97;;;19.10;99.90;;;;;;4591948;19;20074;-74
2023/10/12 01:41:52;;;;;;;9.30;5.03;;;19.10;99.90;;;;;;4591564;19;20006;-74
2023/10/12 01:43:30;;;;;;;9.45;5.72;;;19.10;99.90;;;;;;4592538;19;19998;-74
2023/10/12 01:45:06;;;;;;;9.20;4.75;;;19.10;99.90;;;;;;4593093;19;20006;-74
2023/10/12 01:46:43;;;;;;;7.80;4.53;;;19.10;99.90;;;;;;4592740;19;20441;-74
2023/10/12 01:48:22;;;;;;;11.30;5.20;;;19.10;99.90;;;;;;4592200;19;20010;-74
2023/10/12 01:50:00;;;;;;;9.80;4.53;;;19.10;99.90;;;;;;4591480;19;20066;-74
2023/10/12 01:51:40;;;;;;;9.18;4.80;;;19.10;99.90;;;;;;4591436;19;20003;-74
2023/10/12 01:53:32;;;;;;;8.02;4.65;;;19.10;99.90;;;;;;4591671;19;20452;-74
2023/10/12 01:55:16;;;;;;;10.40;4.95;;;19.10;99.90;;;;;;4591627;19;20078;-74
2023/10/12 01:56:55;;;;;;;12.05;5.47;;;19.10;99.90;;;;;;4592918;19;20007;-74
2023/10/12 01:58:35;;;;;;;8.38;4.72;;;19.10;99.90;;;;;;4590521;19;20007;-74
2023/10/12 02:00:15;;;;;;;8.65;4.13;;;19.10;99.90;;;;;;4590512;19;20070;-74
2023/10/12 02:03:47;;;;;;;9.82;4.97;;;19.10;99.90;;;;;;4592537;19;20025;-74
2023/10/12 02:05:26;;;;;;;11.13;5.07;;;19.10;99.90;;;;;;4592770;19;20359;-75
2023/10/12 02:07:02;;;;;;;8.70;4.38;;;19.10;99.90;;;;;;4592425;19;20010;-74
2023/10/12 02:10:24;;;;;;;9.27;4.43;;;19.10;99.90;;;;;;4592415;19;20353;-74
2023/10/12 02:12:09;;;;;;;10.63;5.07;;;19.10;99.90;;;;;;4592661;19;20014;-74
2023/10/12 02:13:51;;;;;;;6.85;4.07;;;19.10;99.90;;;;;;4590976;19;20039;-74
2023/10/12 02:15:30;;;;;;;9.88;4.63;;;19.10;99.90;;;;;;4591216;19;20027;-74
2023/10/12 02:17:06;;;;;;;10.52;5.60;;;19.10;99.90;;;;;;4592398;19;20014;-74
2023/10/12 02:18:42;;;;;;;9.00;4.55;;;19.10;99.90;;;;;;4589629;19;20014;-74
2023/10/12 02:20:18;;;;;;;6.47;4.30;;;19.10;99.90;;;;;;4590907;19;20448;-74
2023/10/12 02:21:59;;;;;;;6.72;4.10;;;19.10;99.90;;;;;;4590807;19;20002;-74
2023/10/12 02:25:35;;;;;;;8.48;4.68;;;19.10;99.90;;;;;;4590831;19;20017;-74
2023/10/12 02:27:12;;;;;;;9.65;4.75;;;19.10;99.90;;;;;;4590795;19;20062;-74
2023/10/12 02:28:53;;;;;;;8.80;4.13;;;19.10;99.90;;;;;;4589720;19;20010;-74
2023/10/12 02:30:31;;;;;;;10.68;3.80;;;19.10;99.90;;;;;;4591809;19;20011;-74
2023/10/12 02:32:24;;;;;;;9.38;4.68;;;19.10;99.90;;;;;;4592032;19;19999;-74
2023/10/12 02:34:02;;;;;;;9.65;4.50;;;19.10;99.90;;;;;;4590897;19;20010;-75
2023/10/12 02:35:44;;;;;;;8.93;4.90;;;19.10;99.90;;;;;;4591660;19;20007;-74
2023/10/12 02:37:18;;;;;;;9.18;4.68;;;19.10;99.90;;;;;;4591969;19;20006;-74
2023/10/12 02:38:54;;;;;;;7.65;4.65;;;19.00;99.90;;;;;;4591346;19;20409;-74
2023/10/12 02:40:32;;;;;;;7.43;4.53;;;19.00;99.90;;;;;;4594767;19;20078;-74
2023/10/12 02:43:50;;;;;;;10.88;4.57;;;19.00;99.90;;;;;;4596595;19;20006;-74
2023/10/12 02:45:29;;;;;;;8.32;4.05;;;19.10;99.90;;;;;;4596622;19;20032;-74
2023/10/12 02:47:12;;;;;;;8.90;4.50;;;19.00;99.90;;;;;;4596511;19;20422;-74
2023/10/12 02:48:47;;;;;;;11.13;4.70;;;19.00;99.90;;;;;;4594980;19;20011;-74
2023/10/12 02:50:27;;;;;;;9.52;4.95;;;19.00;99.90;;;;;;4596482;19;20022;-74
2023/10/12 02:52:05;;;;;;;9.68;4.57;;;19.00;99.90;;;;;;4596353;19;20021;-74
2023/10/12 02:53:41;;;;;;;9.88;4.75;;;19.00;99.90;;;;;;4596630;19;20026;-74
2023/10/12 02:56:56;;;;;;;7.65;5.10;;;19.00;99.90;;;;;;4596311;19;20007;-74
2023/10/12 02:58:32;;;;;;;11.85;5.97;;;19.00;99.90;;;;;;4595082;19;20020;-74
2023/10/12 03:00:13;;;;;;;8.95;4.60;;;19.00;99.90;;;;;;4595135;19;20007;-75
2023/10/12 03:01:59;;;;;;;10.27;5.35;;;19.00;99.90;;;;;;4595220;19;20013;-75
2023/10/12 03:03:37;;;;;;;8.30;4.22;;;19.00;99.90;;;;;;4595104;19;20014;-74
2023/10/12 03:05:17;;;;;;;9.80;5.47;;;19.00;99.90;;;;;;4595857;19;20023;-74
2023/10/12 03:07:08;;;;;;;10.13;4.57;;;19.00;99.90;;;;;;4594854;19;20032;-75
2023/10/12 03:10:45;;;;;;;9.38;4.55;;;19.00;99.90;;;;;;4596215;19;20023;-74
2023/10/12 03:12:20;;;;;;;8.95;4.18;;;19.00;99.90;;;;;;4596273;19;20302;-74
2023/10/12 03:14:13;;;;;;;8.05;4.45;;;19.00;99.90;;;;;;4596154;19;20005;-74
2023/10/12 03:15:57;;;;;;;8.13;4.35;;;19.00;99.90;;;;;;4595944;19;20021;-74
2023/10/12 03:17:31;;;;;;;;;;;19.00;99.90;;;;;;4595718;19;20363;-74
2023/10/12 03:21:11;;;;;;;8.35;4.57;;;19.00;99.90;;;;;;4595890;19;20010;-74
2023/10/12 03:22:47;;;;;;;9.63;4.43;;;19.00;99.90;;;;;;4594687;19;20096;-74
2023/10/12 03:24:21;;;;;;;7.80;4.40;;;19.00;99.90;;;;;;4595911;19;20010;-74
2023/10/12 03:25:57;;;;;;;11.20;4.88;;;19.00;99.90;;;;;;4596024;19;20012;-74
2023/10/12 03:27:33;;;;;;;11.07;4.75;;;19.00;99.90;;;;;;4595615;19;20002;-74
2023/10/12 03:30:53;;;;;;;9.32;4.40;;;19.00;99.90;;;;;;4595611;19;20007;-74
2023/10/12 03:32:28;;;;;;;8.38;4.22;;;19.00;99.90;;;;;;4594524;19;20011;-74
2023/10/12 03:34:13;;;;;;;9.07;5.07;;;19.00;99.90;;;;;;4595164;19;20003;-74
2023/10/12 03:35:57;;;;;;;8.98;4.35;;;19.00;99.90;;;;;;4595583;19;20007;-74
2023/10/12 03:43:08;;;;;;;6.97;4.00;;;19.00;99.90;;;;;;4593350;19;20006;-74
2023/10/12 03:46:28;;;;;;;10.48;4.35;;;19.00;99.90;;;;;;4593323;19;20077;-75
2023/10/12 03:50:05;;;;;;;8.25;5.07;;;19.00;99.90;;;;;;4592404;19;20453;-74
2023/10/12 03:51:45;;;;;;;10.68;4.80;;;19.00;99.90;;;;;;4591632;19;20427;-74
2023/10/12 03:53:26;;;;;;;8.85;5.05;;;19.00;99.90;;;;;;4592808;19;20434;-74
2023/10/12 03:56:38;;;;;;;10.35;4.53;;;19.00;99.90;;;;;;4592959;19;20014;-74
2023/10/12 03:58:15;;;;;;;9.25;3.92;;;19.00;99.90;;;;;;4592231;19;20289;-74
2023/10/12 04:01:41;;;;;;;7.82;4.30;;;19.00;99.90;;;;;;4592590;19;20007;-74
2023/10/12 04:03:19;;;;;;;7.57;3.60;;;19.00;99.90;;;;;;4592782;19;20018;-74
2023/10/12 04:05:15;;;;;;;7.20;4.30;;;19.00;99.90;;;;;;4592621;19;20026;-74
2023/10/12 04:10:23;;;;;;;8.55;4.97;;;19.00;99.90;;;;;;4592552;19;20003;-74
2023/10/12 04:15:27;;;;;;;10.88;4.30;;;19.00;99.90;;;;;;4592266;19;20324;-75
2023/10/12 04:17:19;;;;;;;7.65;4.47;;;19.00;99.90;;;;;;4592176;19;20464;-73
2023/10/12 04:20:28;;;;;;;8.55;4.30;;;19.00;99.90;;;;;;4590814;19;20006;-73
2023/10/12 04:22:16;;;;;;;8.73;4.45;;;19.10;99.90;;;;;;4592223;19;20023;-89
2023/10/12 04:25:49;;;;;;;8.75;3.80;;;19.10;99.90;;;;;;4592102;19;20010;-76
2023/10/12 04:27:39;;;;;;;9.98;4.90;;;19.20;99.90;;;;;;4593079;19;20432;-79
2023/10/12 04:31:20;;;;;;;7.88;4.65;;;19.10;99.90;;;;;;4594345;19;20010;-74
2023/10/12 04:32:57;;;;;;;8.63;5.40;;;19.10;99.90;;;;;;4594049;19;20311;-77
2023/10/12 04:34:46;;;;;;;10.02;4.80;;;19.10;99.90;;;;;;4593010;19;20006;-80
2023/10/12 04:38:56;;;;;;;8.48;4.00;;;19.10;99.90;;;;;;4593681;19;20006;-76
2023/10/12 04:42:20;;;;;;;8.73;4.18;;;19.20;99.90;;;;;;4593176;19;20007;-78
2023/10/12 04:47:45;;;;;;;10.13;4.60;;;19.10;99.90;;;;;;4591455;19;20007;-77
2023/10/12 04:50:59;;;;;;;9.60;4.47;;;19.10;99.90;;;;;;4591791;19;20003;-76
2023/10/12 04:52:38;;;;;;;10.27;5.03;;;19.10;99.90;;;;;;4591687;19;20042;-76
2023/10/12 04:54:25;;;;;;;9.20;5.15;;;19.10;99.90;;;;;;4591612;19;20078;-76
2023/10/12 04:56:00;;;;;;;13.23;4.40;;;19.10;99.90;;;;;;4591696;19;20020;-78
2023/10/12 04:57:34;;;;;;;9.32;4.05;;;19.00;99.90;;;;;;4591411;19;20018;-76
2023/10/12 04:59:16;;;;;;;11.65;5.72;;;19.10;99.90;;;;;;4591333;19;20034;-79
2023/10/12 05:01:15;;;;;;;9.70;4.65;;;19.10;99.90;;;;;;4591591;19;20002;-76
2023/10/12 05:02:54;;;;;;;8.95;4.20;;;19.10;99.90;;;;;;4588962;19;20468;-76
2023/10/12 05:06:13;;;;;;;7.47;4.13;;;19.10;99.90;;;;;;4591154;19;20522;-77
2023/10/12 05:07:54;;;;;;;8.43;5.13;;;19.10;99.90;;;;;;4590998;19;20006;-76
2023/10/12 05:09:29;;;;;;;10.68;5.38;;;19.10;99.90;;;;;;4591221;19;20059;-76
2023/10/12 05:11:07;;;;;;;12.00;4.75;;;19.10;99.90;;;;;;4591074;19;20030;-76
2023/10/12 05:12:43;;;;;;;8.63;4.80;;;19.20;99.90;;;;;;4590968;19;20014;-76
2023/10/12 05:14:19;;;;;;;9.98;6.05;;;19.20;99.90;;;;;;4590445;19;20280;-76
2023/10/12 05:16:02;;;;;;;10.13;5.55;;;19.20;99.90;;;;;;4590965;19;20434;-78
2023/10/12 05:17:38;;;;;;;11.90;5.00;;;19.20;99.90;;;;;;4590934;19;20010;-76
2023/10/12 05:19:14;;;;;;;10.45;5.32;;;19.20;99.90;;;;;;4589717;19;20022;-75
2023/10/12 05:20:48;;;;;;;9.52;5.15;;;19.10;99.90;;;;;;4591236;19;20007;-74
2023/10/12 05:22:23;;;;;;;8.38;4.80;;;19.10;99.90;;;;;;4590892;19;20022;-75
2023/10/12 05:24:13;;;;;;;10.60;5.80;;;19.10;99.90;;;;;;4613081;19;20349;-74
2023/10/12 05:25:53;;;;;;;8.27;4.47;;;19.10;99.90;;;;;;4614889;19;20040;-75
2023/10/12 05:27:39;;;;;;;8.15;5.00;;;19.10;99.90;;;;;;4613107;19;20015;-74
2023/10/12 05:32:55;;;;;;;;;;;19.20;99.90;;;;;;4615566;19;20006;-73
2023/10/12 05:34:44;;;;;;;9.70;4.65;;;19.20;99.90;;;;;;4613373;19;19919;-77
2023/10/12 05:36:23;;;;;;;9.40;4.03;;;19.10;99.90;;;;;;4614251;19;20006;-76
2023/10/12 05:37:57;;;;;;;12.15;6.07;;;19.10;99.90;;;;;;4613757;19;20010;-75
2023/10/12 05:39:31;;;;;;;10.50;4.95;;;19.20;99.90;;;;;;4614267;19;20002;-75
2023/10/12 05:41:10;;;;;;;14.32;7.47;;;19.20;99.90;;;;;;4614079;19;20099;-75
2023/10/12 05:42:47;;;;;;;6.60;3.80;;;19.20;99.90;;;;;;4612507;19;20056;-75
2023/10/12 05:44:26;;;;;;;10.82;4.53;;;19.20;99.90;;;;;;4613875;19;20006;-78
2023/10/12 05:46:10;;;;;;;10.48;5.50;;;19.20;99.90;;;;;;4614118;19;20070;-77
2023/10/12 05:47:51;;;;;;;9.57;5.05;;;19.20;99.90;;;;;;4612480;19;20115;-78
2023/10/12 05:49:25;;;;;;;9.60;3.97;;;19.20;99.90;;;;;;4612992;19;20023;-77
2023/10/12 05:51:00;;;;;;;8.25;5.00;;;19.10;99.90;;;;;;4613997;19;20426;-77
2023/10/12 05:52:38;;;;;;;10.07;4.68;;;19.00;99.90;;;;;;4614241;19;20422;-78
2023/10/12 05:54:23;;;;;;;9.35;4.95;;;19.00;99.90;;;;;;4614020;19;20018;-77
2023/10/12 05:56:17;;;;;;;9.00;4.43;;;19.00;99.90;;;;;;4611310;19;20769;-77
2023/10/12 05:57:55;;;;;;;7.93;4.20;;;19.00;99.90;;;;;;4612063;19;20017;-77
2023/10/12 05:59:30;;;;;;;10.25;3.92;;;19.00;99.90;;;;;;4611684;19;20113;-77
2023/10/12 06:01:10;;;;;;;7.97;3.47;;;19.10;99.90;;;;;;4612379;19;20002;-76
2023/10/12 06:02:46;;;;;;;8.60;4.20;;;19.30;99.90;;;;;;4610611;19;20003;-77
2023/10/12 06:04:20;;;;;;;7.07;3.60;;;19.40;99.90;;;;;;4612005;19;20027;-76
2023/10/12 06:05:54;;;;;;;7.68;3.45;;;19.50;99.90;;;;;;4612406;19;20058;-76
2023/10/12 06:07:32;;;;;;;5.05;3.15;;;19.60;99.90;;;;;;4612129;19;20066;-77
2023/10/12 06:09:11;;;;;;;6.25;3.90;;;19.70;99.90;;;;;;4612095;19;20021;-74
2023/10/12 06:10:48;;;;;;;6.38;3.40;;;19.80;99.90;;;;;;4612251;19;20006;-75
2023/10/12 06:12:24;;;;;;;7.60;4.05;;;19.90;99.90;;;;;;4613401;19;20021;-75
2023/10/12 06:13:59;;;;;;;8.27;4.22;;;20.00;99.90;;;;;;4613874;19;20070;-76
2023/10/12 06:15:39;;;;;;;5.32;3.63;;;20.00;99.90;;;;;;4613414;19;19998;-74
2023/10/12 06:17:28;;;;;;;5.55;3.92;;;18.90;99.90;;;;;;4613521;19;20433;-74
2023/10/12 06:19:05;;;;;;;6.63;4.43;;;18.20;99.90;;;;;;4610403;19;20017;-74
2023/10/12 06:20:42;;;;;;;6.07;4.45;;;17.90;99.90;;;;;;4613392;19;20027;-74
2023/10/12 06:22:32;;;;;;;5.88;3.88;;;17.80;99.90;;;;;;4613719;19;20023;-74
2023/10/12 06:24:11;;;;;;;6.28;4.25;;;17.70;99.90;;;;;;4613391;19;20005;-74
2023/10/12 06:25:46;;;;;;;7.70;4.65;;;17.60;99.90;;;;;;4611959;19;20007;-74
2023/10/12 06:28:58;;;;;;;6.35;4.55;;;17.60;99.90;;;;;;4611280;19;20002;-75
2023/10/12 06:30:34;;;;;;;5.60;3.65;;;17.60;99.90;;;;;;4613190;19;20034;-76
2023/10/12 06:32:17;;;;;;;6.22;3.83;;;17.60;99.90;;;;;;4613465;19;20062;-75
2023/10/12 06:33:52;;;;;;;5.57;3.15;;;17.60;99.90;;;;;;4613250;19;20019;-74
2023/10/12 06:35:27;;;;;;;6.63;3.63;;;17.60;99.90;;;;;;4595845;19;20006;-77
2023/10/12 06:37:12;;;;;;;5.32;3.17;;;17.60;99.90;;;;;;4595268;19;20005;-76
2023/10/12 06:39:40;;;;;;;4.03;2.80;;;17.60;99.90;;;;;;4593877;19;20018;-73
2023/10/12 06:40:49;;;;;;;4.65;3.20;;;17.60;99.90;;;;;;4594174;19;20091;-76
2023/10/12 06:42:29;;;;;;;3.80;2.58;;;17.50;99.90;;;;;;4595295;19;20003;-75
2023/10/12 06:46:15;;;;;;;6.03;3.60;;;17.50;99.90;;;;;;4592685;19;20012;-75
2023/10/12 06:47:57;;;;;;;4.22;2.92;;;17.50;99.90;;;;;;4592429;19;20007;-80
2023/10/12 06:49:33;;;;;;;4.25;2.47;;;17.50;99.90;;;;;;4592240;19;20193;-74
2023/10/12 06:51:11;;;;;;;4.47;3.03;;;17.50;99.90;;;;;;4591869;19;20036;-75
2023/10/12 06:52:57;;;;;;;4.50;2.87;;;17.50;99.90;;;;;;4592090;19;19998;-75
2023/10/12 06:54:33;;;;;;;4.80;3.30;;;17.50;99.90;;;;;;4592431;19;20018;-78
2023/10/12 06:57:56;;;;;;;4.38;2.13;;;17.40;99.90;;;;;;4591942;19;20335;-74
2023/10/12 06:59:35;;;;;;;3.60;2.20;;;17.50;99.90;;;;;;4592766;19;20003;-73
2023/10/12 07:01:28;;;;;;;4.10;2.70;;;17.40;99.90;;;;;;4592586;19;20031;-73
2023/10/12 07:03:08;;;;;;;3.17;2.10;;;17.40;99.90;;;;;;4592189;19;20011;-74
2023/10/12 07:04:53;;;;;;;2.83;1.92;;;17.40;99.90;;;;;;4592419;19;20010;-74
2023/10/12 07:06:28;;;;;;;4.18;2.40;;;17.40;99.90;;;;;;4592507;19;19999;-74
2023/10/12 07:08:07;;;;;;;4.03;2.30;;;17.40;99.90;;;;;;4591915;19;20093;-74
2023/10/12 07:09:48;;;;;;;4.45;2.58;;;17.40;99.90;;;;;;4592595;19;20035;-74
2023/10/12 07:11:23;;;;;;;3.72;2.38;;;17.40;99.90;;;;;;4592678;19;20081;-75
2023/10/12 07:13:03;;;;;;;4.22;2.45;;;17.40;99.90;;;;;;4592352;19;20450;-74
2023/10/12 07:14:46;;;;;;;3.53;2.45;;;17.30;99.90;;;;;;4592339;19;20002;-74
2023/10/12 07:16:25;;;;;;;3.15;1.85;;;17.30;99.90;;;;;;4592158;19;20013;-75
2023/10/12 07:18:16;;;;;;;3.08;1.30;;;17.30;99.90;;;;;;4591999;19;20011;-75
2023/10/12 07:19:54;;;;;;;2.00;1.10;;;17.30;99.90;;;;;;4592168;19;20023;-75
2023/10/12 07:21:28;;;;;;;3.28;1.42;;;17.30;99.90;;;;;;4591752;19;20005;-75
2023/10/12 07:23:34;;;;;;;3.28;1.60;;;17.30;99.90;;;;;;4592013;19;20022;-73
2023/10/12 07:25:04;;;;;;;2.38;1.40;;;17.30;99.90;;;;;;4594004;19;20010;-73
2023/10/12 07:26:39;;;;;;;4.05;1.42;;;17.30;99.90;;;;;;4594292;19;20013;-76
2023/10/12 07:28:19;;;;;;;3.83;1.80;;;17.30;99.90;;;;;;4592224;19;20065;-73
2023/10/12 07:31:51;;;;;;;3.90;1.98;;;17.90;99.90;;;;;;4593066;19;20116;-73
2023/10/12 07:33:29;;;;;;;4.53;2.03;;;18.20;99.90;;;;;;4594400;19;20010;-82
2023/10/12 07:35:18;;;;;;;4.28;1.75;;;18.50;99.90;;;;;;4594080;19;20039;-73
2023/10/12 07:36:58;;;;;;;3.53;1.90;;;18.60;99.90;;;;;;4594323;19;20013;-73
2023/10/12 07:38:40;;;;;;;3.80;1.63;;;18.70;99.90;;;;;;4593373;19;20010;-78
2023/10/12 07:40:18;;;;;;;3.10;1.60;;;18.80;99.90;;;;;;4593997;19;20030;-74
2023/10/12 07:42:00;;;;;;;4.07;2.50;;;19.00;99.90;;;;;;4593967;19;20427;-74
2023/10/12 07:43:41;;;;;;;5.13;2.15;;;19.00;99.90;;;;;;4591861;19;20407;-74
2023/10/12 07:45:19;;;;;;;4.47;2.35;;;19.10;99.90;;;;;;4593614;19;20346;-75
2023/10/12 07:47:00;;;;;;;4.90;2.20;;;19.20;99.90;;;;;;4590120;19;20007;-76
2023/10/12 07:48:45;;;;;;;3.47;1.67;;;19.20;99.90;;;;;;4591424;19;20011;-74
2023/10/12 07:50:25;;;;;;;3.90;1.95;;;19.30;99.90;;;;;;4593923;19;20298;-76
2023/10/12 07:52:09;;;;;;;3.47;2.00;;;19.30;99.90;;;;;;4594049;19;20074;-83
2023/10/12 07:53:57;;;;;;;5.20;1.92;;;19.30;99.90;;;;;;4592423;19;20013;-74
2023/10/12 07:55:41;;;;;;;2.42;1.40;;;19.30;99.90;;;;;;4592621;19;20002;-75
2023/10/12 07:57:17;;;;;;;1.92;1.15;;;19.30;99.90;;;;;;4593444;19;20013;-75
2023/10/12 07:58:57;;;;;;;2.88;1.75;;;19.30;99.90;;;;;;4591145;19;20031;-75
2023/10/12 08:00:34;;;;;;;2.83;1.48;;;19.30;99.90;;;;;;4592342;19;20013;-77
2023/10/12 08:02:08;;;;;;;2.70;0.93;;;19.30;99.90;;;;;;4592500;19;20006;-74
2023/10/12 08:03:51;;;;;;;1.95;0.90;;;19.30;99.90;;;;;;4592355;19;20010;-72
2023/10/12 08:07:06;;;;;;;3.28;1.52;;;19.30;99.90;;;;;;4592506;19;20028;-73
2023/10/12 08:08:45;;;;;;;2.90;1.23;;;19.30;99.90;;;;;;4591928;19;20081;-73
2023/10/12 08:10:29;;;;;;;2.40;1.20;;;19.30;99.90;;;;;;4592740;19;20299;-74
2023/10/12 08:12:23;;;;;;;4.18;1.33;;;19.50;99.90;;;;;;4592641;19;20458;-74
2023/10/12 08:14:09;;;;;;;2.65;1.30;;;19.60;99.90;;;;;;4592384;19;20312;-74
2023/10/12 08:15:58;;;;;;;7.07;1.80;;;19.60;99.90;;;;;;4591923;19;20018;-74
2023/10/12 08:17:35;;;;;;;2.72;1.70;;;19.50;99.90;;;;;;4592998;19;20363;-74
2023/10/12 08:19:28;;;;;;;2.15;1.33;;;19.50;99.90;;;;;;4591855;19;20038;-74
2023/10/12 08:21:10;;;;;;;3.25;1.58;;;19.40;99.90;;;;;;4592129;19;20002;-73
2023/10/12 08:22:46;;;;;;;3.03;1.92;;;19.40;99.90;;;;;;4592671;19;20006;-73
2023/10/12 08:25:57;;;;;;;5.57;2.33;;;19.40;99.90;;;;;;4593128;19;20441;-74
2023/10/12 08:27:52;;;;;;;2.97;1.75;;;19.40;99.90;;;;;;4593165;19;20419;-73
2023/10/12 08:31:14;;;;;;;2.72;1.50;;;19.40;99.90;;;;;;4592769;19;20002;-74
2023/10/12 08:32:59;;;;;;;4.80;2.40;;;19.40;99.90;;;;;;4591391;19;20014;-74
2023/10/12 08:38:13;;;;;;;3.85;2.25;;;19.40;99.90;;;;;;4590542;19;20013;-73
2023/10/12 08:42:06;;;;;;;4.78;2.03;;;19.40;99.90;;;;;;4591885;19;20018;-74
2023/10/12 08:43:45;;;;;;;4.88;2.40;;;19.40;99.90;;;;;;4591378;19;20017;-74
2023/10/12 08:45:26;;;;;;;3.22;1.88;;;19.40;99.90;;;;;;4591908;19;20007;-74
2023/10/12 08:47:08;;;;;;;4.10;2.03;;;19.30;99.90;;;;;;4590412;19;20006;-74
2023/10/12 08:48:53;;;;;;;2.85;1.98;;;19.40;99.90;;;;;;4589329;19;20014;-74
2023/10/12 08:52:28;;;;;;;3.78;2.00;;;19.30;99.90;;;;;;4591087;19;20014;-74
2023/10/12 08:54:02;;;;;;;3.03;1.90;;;19.30;99.90;;;;;;4589807;19;20010;-74
2023/10/12 08:55:43;;;;;;;6.68;2.08;;;19.30;99.90;;;;;;4589943;19;20065;-74
2023/10/12 08:57:35;;;;;;;3.95;2.15;;;19.30;99.90;;;;;;4591000;19;20010;-74
2023/10/12 08:59:11;;;;;;;4.85;1.88;;;19.30;99.90;;;;;;4590220;19;20066;-74
2023/10/12 09:02:38;;;;;;;6.75;2.80;;;19.30;99.90;;;;;;4591197;19;20006;-74
2023/10/12 09:04:15;;;;;;;6.30;2.35;;;19.30;99.90;;;;;;4589716;19;20106;-74
2023/10/12 09:05:58;;;;;;;5.60;2.95;;;19.30;99.90;;;;;;4590700;19;20010;-74
2023/10/12 09:07:40;;;;;;;5.05;3.15;;;19.30;99.90;;;;;;4590959;19;20010;-74
2023/10/12 09:09:48;;;;;;;5.18;3.00;;;19.20;99.90;;;;;;4589645;19;20006;-74
2023/10/12 09:12:46;;;;;;;7.85;3.55;;;19.30;99.90;;;;;;4589749;19;20305;-74
2023/10/12 09:14:23;;;;;;;5.65;3.20;;;19.20;99.90;;;;;;4590569;19;20006;-74
2023/10/12 09:16:09;;;;;;;5.95;3.40;;;19.20;99.90;;;;;;4589808;19;20013;-74
2023/10/12 09:17:44;;;;;;;6.75;3.70;;;19.20;99.90;;;;;;4590098;19;20007;-75
2023/10/12 09:19:28;;;;;;;5.97;2.97;;;19.20;99.90;;;;;;4589611;19;20003;-75
2023/10/12 09:21:18;;;;;;;6.63;3.38;;;19.20;99.90;;;;;;4589298;19;20031;-74
2023/10/12 09:23:03;;;;;;;4.68;2.95;;;19.20;99.90;;;;;;4588656;19;20521;-75
2023/10/12 09:24:38;;;;;;;3.30;1.67;;;19.10;99.90;;;;;;4589312;19;20014;-74
2023/10/12 09:26:15;;;;;;;4.57;1.50;;;19.00;99.90;;;;;;4589549;19;20023;-74
2023/10/12 09:27:49;;;;;;;3.90;1.42;;;19.00;99.90;;;;;;4589975;19;20014;-74
2023/10/12 09:29:24;;;;;;;4.95;1.42;;;18.90;99.90;;;;;;4590794;19;20009;-74
2023/10/12 09:31:00;;;;;;;6.35;1.33;;;18.80;99.90;;;;;;4589494;19;20007;-74
2023/10/12 09:32:46;;;;;;;4.85;1.20;;;18.80;99.90;;;;;;4590400;19;20315;-74
2023/10/12 09:36:09;;;;;;;4.55;1.40;;;18.80;99.90;;;;;;4591011;19;20006;-74
2023/10/12 09:37:44;;;;;;;4.20;1.13;;;18.80;99.90;;;;;;4590711;19;20066;-74
2023/10/12 09:39:24;;;;;;;3.85;1.15;;;18.80;99.90;;;;;;4590631;19;20007;-74
2023/10/12 09:41:00;;;;;;;;;;;18.80;99.90;;;;;;4590034;19;20010;-74
2023/10/12 09:42:34;;;;;;;3.42;1.00;;;18.80;99.90;;;;;;4589244;19;19914;-74
2023/10/12 09:44:12;;;;;;;4.32;1.10;;;18.80;99.90;;;;;;4587979;19;20031;-74
2023/10/12 09:45:55;;;;;;;5.53;1.30;;;18.90;99.90;;;;;;4590079;19;20006;-74
2023/10/12 09:47:43;;;;;;;4.03;1.10;;;18.80;99.90;;;;;;4589123;19;20017;-74
2023/10/12 09:49:23;;;;;;;4.60;1.33;;;18.90;99.90;;;;;;4588968;19;20013;-74
2023/10/12 09:50:59;;;;;;;3.67;0.82;;;18.90;99.90;;;;;;4589994;19;20292;-74
2023/10/12 09:52:46;;;;;;;4.55;1.63;;;18.90;99.90;;;;;;4588826;19;20098;-74
2023/10/12 09:54:27;;;;;;;3.95;1.27;;;18.90;99.90;;;;;;4589453;19;20007;-74
2023/10/12 09:56:15;;;;;;;4.68;1.63;;;18.90;99.90;;;;;;4589124;19;20014;-74
2023/10/12 09:57:54;;;;;;;6.22;1.83;;;18.90;99.90;;;;;;4588437;19;20007;-74
2023/10/12 09:59:37;;;;;;;5.93;1.70;;;18.90;99.90;;;;;;4588829;19;20013;-74
2023/10/12 10:01:22;;;;;;;4.35;1.63;;;18.90;99.90;;;;;;4589020;19;20013;-74
2023/10/12 10:03:03;;;;;;;3.17;1.48;;;18.90;99.90;;;;;;4590242;19;20002;-74
2023/10/12 10:04:41;;;;;;;4.90;1.90;;;18.90;99.90;;;;;;4588724;19;20007;-74
2023/10/12 10:06:37;;;;;;;4.60;1.67;;;18.90;99.90;;;;;;4588707;19;20013;-74
2023/10/12 10:08:17;;;;;;;4.05;1.90;;;18.90;99.90;;;;;;4589430;19;20003;-74
2023/10/12 10:09:56;;;;;;;3.90;1.35;;;18.90;99.90;;;;;;4589839;19;20007;-74
2023/10/12 10:11:32;;;;;;;6.07;2.17;;;18.90;99.90;;;;;;4593417;19;20296;-73
2023/10/12 10:13:12;;;;;;;4.53;1.80;;;18.90;99.90;;;;;;4594504;19;20017;-74
2023/10/12 10:14:54;;;;;;;6.93;2.28;;;18.90;99.90;;;;;;4594547;19;20061;-73
2023/10/12 10:16:45;;;;;;;5.30;1.60;;;18.90;99.90;;;;;;4593397;19;20454;-74
2023/10/12 10:18:20;;;;;;;5.85;1.95;;;18.90;99.90;;;;;;4592121;19;20007;-74
2023/10/12 10:22:08;;;;;;;4.80;1.55;;;19.00;99.90;;;;;;4591954;19;20002;-74
2023/10/12 10:23:48;;;;;;;;;;;19.00;99.90;;;;;;4591471;19;20030;-73